This is the latest recevied weather packets stored in our database for station/object HP1CDW-13. If no packets are shown the sender has not sent any weather packets the latest 10 day(s).
| Time | Temp. | Humidity | Pressure | Rain* | Wind** | Luminosity | Snow |
|---|---|---|---|---|---|---|---|
| 1778183690 | 33.89° C | 71% | 1011.7 hPa | 0 mm | - | - | - |
| 1778183090 | 33.33° C | 70% | 1011.7 hPa | 0 mm | - | - | - |
| 1778182490 | 33.33° C | 69% | 1012 hPa | 0 mm | - | - | - |
| 1778181890 | 32.22° C | 72% | 1012.1 hPa | 0 mm | - | - | - |
| 1778181290 | 32.22° C | 71% | 1012.3 hPa | 0 mm | - | - | - |
| 1778180690 | 32.78° C | 69% | 1012.6 hPa | 0 mm | - | - | - |
| 1778180090 | 32.78° C | 68% | 1012.8 hPa | 0 mm | - | - | - |
| 1778179490 | 32.78° C | 67% | 1012.9 hPa | 0 mm | - | - | - |
| 1778178890 | 33.89° C | 65% | 1013 hPa | 0 mm | - | - | - |
| 1778178290 | 33.89° C | 66% | 1013 hPa | 0 mm | - | - | - |
| 1778177690 | 34.44° C | 64% | 1013.5 hPa | 0 mm | - | - | - |
| 1778177090 | 33.33° C | 69% | 1013.5 hPa | 0 mm | - | - | - |
| 1778176490 | 33.33° C | 70% | 1013.8 hPa | 0 mm | - | - | - |
| 1778175890 | 32.78° C | 71% | 1013.7 hPa | 0 mm | - | - | - |
| 1778175290 | 32.78° C | 70% | 1013.8 hPa | 0 mm | - | - | - |
| 1778174690 | 32.78° C | 70% | 1014.1 hPa | 0 mm | - | - | - |
| 1778174090 | 31.67° C | 73% | 1014.3 hPa | 0 mm | - | - | - |
| 1778173490 | 31.67° C | 73% | 1014.3 hPa | 0 mm | - | - | - |
| 1778172890 | 31.67° C | 72% | 1014.4 hPa | 0 mm | - | - | - |
| 1778172290 | 32.22° C | 70% | 1014.4 hPa | 0 mm | - | - | - |
| 1778171690 | 32.78° C | 69% | 1014.6 hPa | 0 mm | - | - | - |
| 1778171090 | 33.33° C | 65% | 1014.8 hPa | 0 mm | - | - | - |
| 1778170490 | 33.33° C | 63% | 1014.7 hPa | 0 mm | - | - | - |
| 1778169890 | 33.33° C | 63% | 1014.9 hPa | 0 mm | - | - | - |
| 1778169290 | 33.89° C | 64% | 1014.6 hPa | 0 mm | - | - | - |
* Rain latest hour (hover to see other rain measurements)
** Current wind speed in m/s (hover to see current wind gust speed)